KPVU

Provo Municipal Airport

Provo, Utah, USA
METAR KPVU 182056Z 04005KT 10SM FEW100 BKN210 29/11 A3019 RMK AO2 SLP168 6//// T02890106 58019 PNO $
Observed Flight Rules
Aug-18 @ 20:56 UTC (59 minutes ago) Visual Flight Rules
Wind Visibility Clouds
40° at 5 knots 10 miles
  • Few at 10,000' AGL
  • Broken at 21,000' AGL
Temperatures Readings
Current 29°C / 84°F
Dewpoint 11°C / 52°F
Humidity 33%
Altimeter 30.19" Hg
Pressure 1016.8 hPa
Elevation 1369
METAR KPVU 182056Z 04005KT 10SM FEW100 BKN210 29/11 A3019 RMK AO2 SLP168 6//// T02890106 58019 PNO $
Observed Flight Rules
Aug-18 @ 20:56 UTC
(59 minutes ago)
VFR
Wind Visibility
40° at 5 knots 10 miles
Clouds
  • Few at 10,000' AGL
  • Broken at 21,000' AGL
Temperature Dewpoint
29°C / 84°F 11°C / 52°F
Humidity Altimeter Pressure
33% 30.19" Hg 1016.8 hPa